TimeCST,TemperatureF,Dew PointF,Humidity,Sea Level PressureIn,VisibilityMPH,Wind Direction,Wind SpeedMPH,Gust SpeedMPH,PrecipitationIn,Events,Conditions,WindDirDegrees,DateUTC
12:15 AM,32.0,30.2,93,30.46,6.0,Calm,Calm,-,N/A,,Clear,0,2013-01-04 06:15:00
12:35 AM,32.0,28.4,87,30.46,5.0,Calm,Calm,-,N/A,,Clear,0,2013-01-04 06:35:00
12:55 AM,30.2,28.4,93,30.46,7.0,Calm,Calm,-,N/A,,Clear,0,2013-01-04 06:55:00
1:15 AM,30.2,28.4,93,30.46,7.0,Calm,Calm,-,N/A,,Clear,0,2013-01-04 07:15:00
1:35 AM,28.4,28.4,100,30.46,7.0,Calm,Calm,-,N/A,,Mostly Cloudy,0,2013-01-04 07:35:00
1:55 AM,32.0,28.4,87,30.46,8.0,Calm,Calm,-,N/A,,Overcast,0,2013-01-04 07:55:00
2:15 AM,32.0,30.2,93,30.46,7.0,Calm,Calm,-,N/A,,Overcast,0,2013-01-04 08:15:00
2:55 AM,32.0,32.0,100,30.46,9.0,Calm,Calm,-,N/A,,Overcast,0,2013-01-04 08:55:00
3:15 AM,32.0,32.0,100,30.45,10.0,Calm,Calm,-,N/A,,Overcast,0,2013-01-04 09:15:00
5:55 AM,26.6,26.6,100,30.46,8.0,Calm,Calm,-,N/A,,Clear,0,2013-01-04 11:55:00
6:15 AM,28.4,26.6,93,30.48,5.0,Calm,Calm,-,N/A,,Clear,0,2013-01-04 12:15:00
6:35 AM,28.4,26.6,93,30.50,3.0,Calm,Calm,-,N/A,,Clear,0,2013-01-04 12:35:00
6:55 AM,28.4,26.6,93,30.51,5.0,Calm,Calm,-,N/A,,Clear,0,2013-01-04 12:55:00
7:15 AM,28.4,26.6,93,30.52,7.0,Calm,Calm,-,N/A,,Clear,0,2013-01-04 13:15:00
7:35 AM,26.6,24.8,93,30.51,8.0,Calm,Calm,-,N/A,,Clear,0,2013-01-04 13:35:00
7:55 AM,28.4,26.6,93,30.50,7.0,Calm,Calm,-,N/A,,Clear,0,2013-01-04 13:55:00
8:15 AM,32.0,30.2,93,30.51,7.0,Calm,Calm,-,N/A,,Clear,0,2013-01-04 14:15:00
8:35 AM,33.8,32.0,93,30.50,8.0,Calm,Calm,-,N/A,,Clear,0,2013-01-04 14:35:00
8:55 AM,37.4,32.0,81,30.52,9.0,Calm,Calm,-,N/A,,Partly Cloudy,0,2013-01-04 14:55:00
9:15 AM,37.4,32.0,81,30.52,9.0,Calm,Calm,-,N/A,,Clear,0,2013-01-04 15:15:00
9:35 AM,37.4,32.0,81,30.54,8.0,Calm,Calm,-,N/A,,Clear,0,2013-01-04 15:35:00
9:55 AM,39.2,32.0,75,30.54,8.0,Calm,Calm,-,N/A,,Partly Cloudy,0,2013-01-04 15:55:00
10:15 AM,42.8,32.0,66,30.54,9.0,WNW,4.6,-,N/A,,Scattered Clouds,290,2013-01-04 16:15:00
10:35 AM,42.8,32.0,66,30.53,9.0,NW,4.6,-,N/A,,Partly Cloudy,320,2013-01-04 16:35:00
10:55 AM,44.6,32.0,61,30.52,10.0,NW,3.5,-,N/A,,Clear,310,2013-01-04 16:55:00
11:15 AM,46.4,32.0,57,30.53,10.0,WNW,4.6,-,N/A,,Clear,300,2013-01-04 17:15:00
11:35 AM,46.4,28.4,50,30.51,10.0,NW,5.8,-,N/A,,Scattered Clouds,320,2013-01-04 17:35:00
11:55 AM,48.2,28.4,46,30.50,10.0,NNW,4.6,-,N/A,,Scattered Clouds,330,2013-01-04 17:55:00
12:15 PM,50.0,26.6,40,30.49,10.0,NNW,6.9,-,N/A,,Mostly Cloudy,340,2013-01-04 18:15:00
12:55 PM,53.6,26.6,35,30.47,10.0,Calm,Calm,-,N/A,,Partly Cloudy,0,2013-01-04 18:55:00
1:15 PM,51.8,24.8,35,30.45,10.0,NW,5.8,-,N/A,,Partly Cloudy,320,2013-01-04 19:15:00
1:35 PM,51.8,24.8,35,30.45,10.0,WNW,3.5,-,N/A,,Clear,290,2013-01-04 19:35:00
1:55 PM,53.6,24.8,33,30.44,10.0,North,5.8,-,N/A,,Clear,360,2013-01-04 19:55:00
2:15 PM,53.6,24.8,33,30.43,10.0,SW,3.5,-,N/A,,Clear,230,2013-01-04 20:15:00
2:35 PM,53.6,23.0,30,30.42,10.0,NNW,5.8,-,N/A,,Clear,330,2013-01-04 20:35:00
2:55 PM,51.8,23.0,33,30.42,10.0,NW,9.2,-,N/A,,Clear,310,2013-01-04 20:55:00
3:15 PM,50.0,23.0,35,30.42,10.0,NW,4.6,-,N/A,,Mostly Cloudy,320,2013-01-04 21:15:00
3:35 PM,50.0,23.0,35,30.42,10.0,NNW,4.6,-,N/A,,Overcast,330,2013-01-04 21:35:00
3:55 PM,50.0,23.0,35,30.42,10.0,North,6.9,-,N/A,,Mostly Cloudy,10,2013-01-04 21:55:00
4:15 PM,48.2,23.0,37,30.42,10.0,North,6.9,-,N/A,,Overcast,360,2013-01-04 22:15:00
4:35 PM,48.2,23.0,37,30.42,10.0,North,8.1,-,N/A,,Overcast,350,2013-01-04 22:35:00
4:55 PM,48.2,23.0,37,30.42,10.0,North,4.6,-,N/A,,Overcast,350,2013-01-04 22:55:00
5:15 PM,46.4,23.0,40,30.42,10.0,NNW,3.5,-,N/A,,Overcast,340,2013-01-04 23:15:00
5:35 PM,46.4,24.8,43,30.42,10.0,North,3.5,-,N/A,,Overcast,350,2013-01-04 23:35:00
5:55 PM,46.4,24.8,43,30.42,10.0,Calm,Calm,-,N/A,,Overcast,0,2013-01-04 23:55:00
6:15 PM,46.4,24.8,43,30.43,10.0,Calm,Calm,-,N/A,,Overcast,0,2013-01-05 00:15:00
6:55 PM,44.6,28.4,53,30.43,10.0,Calm,Calm,-,N/A,,Overcast,0,2013-01-05 00:55:00
7:15 PM,44.6,32.0,61,30.43,10.0,Calm,Calm,-,N/A,,Overcast,0,2013-01-05 01:15:00
7:35 PM,42.8,32.0,66,30.43,10.0,Calm,Calm,-,N/A,,Overcast,0,2013-01-05 01:35:00
7:55 PM,41.0,32.0,70,30.41,10.0,Calm,Calm,-,N/A,,Mostly Cloudy,0,2013-01-05 01:55:00
8:15 PM,39.2,32.0,75,30.42,10.0,Calm,Calm,-,N/A,,Overcast,0,2013-01-05 02:15:00
8:35 PM,39.2,32.0,75,30.42,10.0,Calm,Calm,-,N/A,,Mostly Cloudy,0,2013-01-05 02:35:00
9:15 PM,37.4,32.0,81,30.42,10.0,Calm,Calm,-,N/A,,Clear,0,2013-01-05 03:15:00
9:35 PM,37.4,32.0,81,30.43,10.0,Calm,Calm,-,N/A,,Clear,0,2013-01-05 03:35:00
9:55 PM,37.4,32.0,81,30.42,10.0,Calm,Calm,-,N/A,,Clear,0,2013-01-05 03:55:00
10:15 PM,37.4,32.0,81,30.42,10.0,Calm,Calm,-,N/A,,Partly Cloudy,0,2013-01-05 04:15:00
10:35 PM,37.4,32.0,81,30.42,10.0,Calm,Calm,-,N/A,,Scattered Clouds,0,2013-01-05 04:35:00
10:55 PM,37.4,32.0,81,30.42,10.0,Calm,Calm,-,N/A,,Scattered Clouds,0,2013-01-05 04:55:00
11:15 PM,37.4,32.0,81,30.42,10.0,Calm,Calm,-,N/A,,Partly Cloudy,0,2013-01-05 05:15:00
11:35 PM,37.4,32.0,81,30.40,10.0,Calm,Calm,-,N/A,,Mostly Cloudy,0,2013-01-05 05:35:00
11:55 PM,37.4,32.0,81,30.40,10.0,Calm,Calm,-,N/A,,Mostly Cloudy,0,2013-01-05 05:55:00